Time;durP1;ratioP1;P1;durP2;ratioP2;P2;SDS_P1;SDS_P2;PMS_P1;PMS_P2;Temp;Humidity;BMP_temperature;BMP_pressure;BME280_temperature;BME280_humidity;BME280_pressure;Samples;Min_cycle;Max_cycle;Signal;HPM_P1;HPM_P2
2022/04/09 10:07:24;;;;;;;8.40;2.58;;;;;;;11.49;67.61;97858.94;1654461;86;21135;-72
2022/04/09 10:09:58;;;;;;;5.10;2.58;;;;;;;11.45;66.89;97870.47;1647511;86;21549;-72
2022/04/09 10:12:28;;;;;;;6.33;2.83;;;;;;;11.43;66.41;97876.36;1640775;87;20990;-70
2022/04/09 10:14:58;;;;;;;6.22;3.17;;;;;;;11.41;66.17;97866.87;1644264;87;21256;-71
2022/04/09 10:17:31;;;;;;;5.12;2.35;;;;;;;11.40;66.02;97856.98;1624250;87;21009;-72
2022/04/09 10:20:03;;;;;;;4.80;2.85;;;;;;;11.38;66.17;97854.59;1644443;87;21101;-75
2022/04/09 10:22:41;;;;;;;6.25;2.83;;;;;;;11.39;66.30;97851.27;1628365;86;21438;-73
2022/04/09 10:25:08;;;;;;;5.65;2.87;;;;;;;11.39;66.50;97847.94;1665658;85;21074;-73
2022/04/09 10:27:45;;;;;;;6.05;2.83;;;;;;;11.40;66.41;97852.28;1682675;84;21064;-71
2022/04/09 10:30:28;;;;;;;5.15;3.10;;;;;;;11.41;66.53;97849.72;1682901;84;20976;-72
2022/04/09 10:32:59;;;;;;;9.65;3.22;;;;;;;11.43;66.71;97845.22;1682555;84;21569;-72
2022/04/09 10:35:38;;;;;;;6.97;3.33;;;;;;;11.45;66.78;97847.03;1683088;84;21055;-72
2022/04/09 10:38:24;;;;;;;8.95;3.50;;;;;;;11.46;66.83;97851.41;1683269;84;20945;-72
2022/04/09 10:41:24;;;;;;;8.85;3.08;;;;;;;11.47;66.78;97848.05;1683154;84;20946;-74
2022/04/09 10:46:43;;;;;;;8.55;4.33;;;;;;;11.49;66.50;97838.25;1682768;84;20862;-73
2022/04/09 10:49:18;;;;;;;8.58;3.55;;;;;;;11.50;66.41;97835.70;1683109;84;21481;-73
2022/04/09 10:52:14;;;;;;;8.25;3.80;;;;;;;11.51;66.42;97830.98;1683123;84;20953;-74
2022/04/09 10:54:44;;;;;;;;;;;;;;;11.53;66.35;97829.45;1686393;84;21125;-73
2022/04/09 10:57:41;;;;;;;7.92;3.37;;;;;;;11.57;66.25;97821.23;1676287;85;20394;-73
2022/04/09 11:00:33;;;;;;;11.10;3.30;;;;;;;11.60;66.39;97823.25;1681304;84;21551;-73
2022/04/09 11:03:32;;;;;;;7.95;3.72;;;;;;;11.67;66.21;97816.48;1682870;84;21084;-72
2022/04/09 11:06:43;;;;;;;12.30;3.45;;;;;;;11.74;66.11;97813.61;1689624;84;21024;-73
2022/04/09 11:09:08;;;;;;;7.90;3.55;;;;;;;11.80;65.87;97805.26;1679098;85;21158;-75
2022/04/09 11:11:39;;;;;;;8.73;3.33;;;;;;;11.84;65.56;97797.81;1659806;85;21020;-73
2022/04/09 11:14:07;;;;;;;6.90;3.15;;;;;;;11.87;65.29;97807.33;1682881;84;20953;-73
2022/04/09 11:16:35;;;;;;;8.73;3.05;;;;;;;11.89;64.89;97803.02;1683070;85;20957;-72
2022/04/09 11:19:02;;;;;;;8.65;3.00;;;;;;;11.91;64.68;97803.45;1683068;85;21113;-72
2022/04/09 11:21:29;;;;;;;10.25;3.50;;;;;;;11.93;64.55;97800.31;1683073;84;21257;-73
2022/04/09 11:24:09;;;;;;;7.55;3.15;;;;;;;11.97;64.49;97804.52;1682806;84;21040;-72
2022/04/09 11:26:38;;;;;;;7.53;3.30;;;;;;;11.97;64.36;97805.32;1682986;85;20992;-72
2022/04/09 11:29:11;;;;;;;7.78;4.00;;;;;;;12.00;64.33;97803.77;1683037;85;21497;-73
2022/04/09 11:31:47;;;;;;;7.17;3.05;;;;;;;12.00;64.28;97807.33;1682793;84;21060;-74
2022/04/09 11:34:15;;;;;;;9.88;3.60;;;;;;;12.00;63.83;97812.05;1683057;84;21457;-73
2022/04/09 11:36:45;;;;;;;8.55;3.25;;;;;;;12.01;63.70;97841.27;1682844;84;20956;-73
2022/04/09 11:39:19;;;;;;;9.88;3.92;;;;;;;12.00;63.76;97859.77;1683353;85;21067;-73
2022/04/09 11:45:01;;;;;;;10.78;5.08;;;;;;;11.99;64.77;97854.02;1641116;87;21596;-72
2022/04/09 11:47:30;;;;;;;10.43;4.05;;;;;;;11.98;64.89;97872.34;1638341;87;21040;-72
2022/04/09 11:49:58;;;;;;;6.85;3.67;;;;;;;11.93;65.15;97858.27;1641281;86;21509;-73
2022/04/09 11:52:27;;;;;;;11.68;4.28;;;;;;;11.88;65.60;97853.88;1641105;86;21040;-73
2022/04/09 11:54:59;;;;;;;8.55;5.28;;;;;;;11.89;65.98;97845.02;1641361;87;21157;-73
2022/04/09 11:57:27;;;;;;;11.33;5.92;;;;;;;11.95;66.42;97844.10;1641346;86;20998;-74
2022/04/09 11:59:56;;;;;;;15.30;5.95;;;;;;;12.02;66.84;97844.22;1641317;87;21776;-71
2022/04/09 12:02:27;;;;;;;11.75;6.00;;;;;;;12.12;66.99;97849.72;1641239;87;20866;-73
2022/04/09 12:04:57;;;;;;;12.05;5.55;;;;;;;12.21;67.01;97848.88;1641218;86;20976;-73
2022/04/09 12:07:26;;;;;;;9.68;5.85;;;;;;;12.34;67.08;97842.55;1641308;87;21477;-74
2022/04/09 12:09:58;;;;;;;11.10;5.25;;;;;;;12.47;66.96;97835.42;1622951;87;20981;-73
2022/04/09 12:12:26;;;;;;;12.60;4.97;;;;;;;12.61;66.42;97838.94;1644301;87;21207;-71
2022/04/09 12:14:57;;;;;;;9.68;5.08;;;;;;;12.71;66.08;97830.60;1644178;87;21467;-73
2022/04/09 12:17:34;;;;;;;9.58;4.47;;;;;;;12.81;65.88;97822.22;1644321;87;21605;-75
2022/04/09 12:20:44;;;;;;;14.15;5.15;;;;;;;12.92;65.54;97820.95;1644355;87;21470;-72
2022/04/09 12:23:14;;;;;;;10.75;4.70;;;;;;;13.05;65.39;97811.22;1644253;87;21482;-75
2022/04/09 12:25:47;;;;;;;14.18;5.75;;;;;;;13.20;64.99;97814.96;1645815;84;21565;-74
2022/04/09 12:28:23;;;;;;;17.52;5.78;;;;;;;13.30;64.69;97802.41;1694785;84;20945;-74
2022/04/09 12:30:53;;;;;;;8.80;4.95;;;;;;;13.41;64.59;97798.95;1691058;84;21062;-72
2022/04/09 12:33:22;;;;;;;10.82;4.53;;;;;;;13.47;63.92;97792.69;1709446;83;21012;-75
2022/04/09 12:35:54;;;;;;;9.30;4.20;;;;;;;13.52;63.49;97788.80;1637763;87;21167;-74
2022/04/09 12:38:35;;;;;;;9.25;4.08;;;;;;;13.53;62.77;97791.76;1644312;87;21256;-73
2022/04/09 12:41:05;;;;;;;14.45;4.05;;;;;;;13.53;62.30;97793.75;1646055;85;20909;-74
2022/04/09 12:43:40;;;;;;;9.20;3.22;;;;;;;13.46;61.68;97788.92;1644552;86;21450;-74
2022/04/09 12:46:15;;;;;;;11.63;3.50;;;;;;;13.37;61.50;97785.08;1625761;86;21012;-73
2022/04/09 12:48:51;;;;;;;7.70;3.05;;;;;;;13.30;61.47;97776.13;1684629;83;20929;-72
2022/04/09 12:51:21;;;;;;;9.35;4.08;;;;;;;13.24;61.50;97781.78;1683043;82;21217;-73
2022/04/09 12:53:56;;;;;;;9.73;4.00;;;;;;;13.12;61.64;97781.47;1682367;84;20976;-76
2022/04/09 12:56:25;;;;;;;29.95;9.75;;;;;;;13.04;61.84;97783.37;1683347;85;20893;-71
2022/04/09 12:58:59;;;;;;;;;;;;;;;12.99;62.02;97783.14;1681126;85;21514;-74
2022/04/09 13:01:26;;;;;;;32.00;12.15;;;;;;;12.96;62.12;97774.23;1682986;85;20172;-75
2022/04/09 13:03:57;;;;;;;25.88;10.58;;;;;;;12.90;62.37;97775.15;1682623;84;21107;-74
2022/04/09 13:06:23;;;;;;;29.10;9.00;;;;;;;12.86;62.57;97774.30;1683178;84;20850;-75
2022/04/09 13:08:51;;;;;;;38.60;13.25;;;;;;;12.82;62.68;97772.68;1683065;84;20988;-74
2022/04/09 13:11:23;;;;;;;38.60;14.05;;;;;;;12.77;62.81;97776.00;1683265;84;21417;-74
2022/04/09 13:13:52;;;;;;;36.98;12.35;;;;;;;12.72;62.89;97773.58;1682912;85;20981;-73
2022/04/09 13:16:21;;;;;;;21.57;10.48;;;;;;;12.68;63.09;97762.25;1654416;85;21231;-74
2022/04/09 13:18:51;;;;;;;17.90;6.67;;;;;;;12.66;63.35;97757.91;1683169;85;20850;-74
2022/04/09 13:21:21;;;;;;;15.10;5.03;;;;;;;12.68;63.49;97771.34;1682459;84;20972;-74
2022/04/09 13:23:48;;;;;;;11.83;5.37;;;;;;;12.71;63.49;97774.73;1683311;84;21442;-76
2022/04/09 13:26:16;;;;;;;11.00;5.20;;;;;;;12.74;63.51;97770.44;1682855;85;20961;-74
2022/04/09 13:28:47;;;;;;;18.57;8.20;;;;;;;12.80;63.57;97767.53;1682645;84;21057;-75
2022/04/09 13:31:16;;;;;;;16.35;6.05;;;;;;;12.88;63.61;97764.28;1683069;84;20957;-75
2022/04/09 13:33:43;;;;;;;8.73;5.58;;;;;;;12.93;63.33;97765.89;1682898;84;20945;-73
2022/04/09 13:36:12;;;;;;;14.05;5.12;;;;;;;12.97;63.23;97761.98;1683054;84;20972;-73
2022/04/09 13:38:41;;;;;;;12.28;4.87;;;;;;;13.01;62.98;97755.92;1682991;84;21040;-73
2022/04/09 13:41:13;;;;;;;11.63;5.03;;;;;;;13.05;62.94;97762.06;1682904;85;21606;-74
2022/04/09 13:43:38;;;;;;;12.23;5.40;;;;;;;13.07;62.84;97759.73;1682847;84;21032;-74
2022/04/09 13:46:05;;;;;;;14.75;5.33;;;;;;;13.07;62.67;97763.27;1683008;85;20857;-75
2022/04/09 13:48:32;;;;;;;20.92;4.15;;;;;;;13.08;62.71;97762.11;1682846;85;21036;-74
2022/04/09 13:51:00;;;;;;;13.40;4.17;;;;;;;13.08;62.65;97755.20;1653364;85;21040;-73
2022/04/09 13:53:27;;;;;;;17.85;3.92;;;;;;;13.09;62.57;97751.83;1682698;84;21146;-75
2022/04/09 13:55:57;;;;;;;14.55;4.33;;;;;;;13.09;62.35;97753.20;1682942;84;20936;-72
2022/04/09 13:58:25;;;;;;;10.72;4.45;;;;;;;13.08;62.32;97752.44;1682980;85;20885;-73
2022/04/09 14:00:54;;;;;;;10.90;4.58;;;;;;;13.06;62.42;97749.83;1683019;84;20998;-74
2022/04/09 14:03:22;;;;;;;8.80;4.20;;;;;;;13.01;62.40;97749.02;1683317;85;20913;-75
2022/04/09 14:05:55;;;;;;;13.18;4.80;;;;;;;12.98;62.49;97748.97;1683046;84;22124;-74
2022/04/09 14:08:23;;;;;;;14.40;4.70;;;;;;;12.94;62.63;97746.74;1683094;84;21415;-75
2022/04/09 14:10:57;;;;;;;18.50;7.30;;;;;;;12.88;62.61;97748.47;1683077;84;21280;-75
2022/04/09 14:13:30;;;;;;;9.83;6.12;;;;;;;12.84;62.75;97746.84;1677616;85;20956;-73
2022/04/09 14:16:00;;;;;;;14.55;7.00;;;;;;;12.80;62.89;97748.19;1682592;84;21067;-76
2022/04/09 14:18:28;;;;;;;11.88;6.10;;;;;;;12.75;62.88;97753.47;1682968;84;20938;-75
2022/04/09 14:20:57;;;;;;;19.50;5.92;;;;;;;12.71;63.01;97746.33;1653798;85;21466;-74
2022/04/09 14:23:26;;;;;;;12.05;5.03;;;;;;;12.67;63.15;97736.61;1682880;84;20885;-74
2022/04/09 14:25:54;;;;;;;11.90;4.62;;;;;;;12.62;63.31;97741.87;1683123;85;20990;-74
2022/04/09 14:28:26;;;;;;;21.05;5.37;;;;;;;12.60;63.50;97745.61;1677779;85;20980;-75
2022/04/09 14:30:51;;;;;;;16.60;5.60;;;;;;;12.57;63.69;97746.38;1682857;84;20985;-73
2022/04/09 14:33:20;;;;;;;20.15;5.25;;;;;;;12.57;63.96;97747.75;1682862;84;20957;-75
2022/04/09 14:35:54;;;;;;;13.18;6.20;;;;;;;12.56;64.22;97732.34;1682883;85;20937;-75
2022/04/09 14:38:21;;;;;;;10.08;5.45;;;;;;;12.57;64.36;97740.84;1683281;84;21464;-73
2022/04/09 14:40:48;;;;;;;8.78;5.00;;;;;;;12.55;64.54;97740.42;1683190;85;20937;-75
2022/04/09 14:43:22;;;;;;;12.25;4.80;;;;;;;12.56;64.87;97744.77;1682948;85;21752;-73
2022/04/09 14:45:49;;;;;;;10.48;5.78;;;;;;;12.54;65.17;97731.91;1683335;85;21024;-74
2022/04/09 14:49:22;;;;;;;11.97;4.55;;;;;;;12.46;65.48;97728.86;1679570;85;21525;-73
2022/04/09 14:55:56;;;;;;;11.85;6.30;;;;;;;12.35;67.00;97731.51;1683003;85;20967;-74
2022/04/09 15:13:12;;;;;;;14.93;4.80;;;;;;;11.98;70.50;97750.90;1562433;91;21091;-72
2022/04/09 15:15:46;;;;;;;12.30;4.47;;;;;;;11.97;70.90;97738.28;1577334;91;21058;-72
2022/04/09 15:18:15;;;;;;;19.98;9.60;;;;;;;11.98;71.20;97735.14;1577319;91;21073;-73
2022/04/09 15:20:46;;;;;;;13.85;6.25;;;;;;;12.00;71.75;97741.09;1570099;90;20987;-73
2022/04/09 15:23:22;;;;;;;13.40;6.05;;;;;;;12.03;72.02;97749.20;1601128;83;21193;-74
2022/04/09 15:25:51;;;;;;;15.40;5.67;;;;;;;12.04;72.69;97746.66;1682978;84;21576;-74
2022/04/09 15:28:24;;;;;;;9.98;5.10;;;;;;;12.02;73.20;97745.66;1683314;84;21155;-73
2022/04/09 15:30:52;;;;;;;12.80;5.03;;;;;;;12.02;73.33;97750.38;1682981;84;21489;-73
2022/04/09 15:33:32;;;;;;;13.80;7.03;;;;;;;12.00;73.50;97760.41;1671845;85;21419;-73
2022/04/09 15:35:59;;;;;;;15.35;7.35;;;;;;;11.89;73.71;97753.34;1682958;85;21592;-72
2022/04/09 15:38:25;;;;;;;16.02;8.15;;;;;;;11.81;74.01;97749.70;1683029;84;21441;-72
2022/04/09 15:40:52;;;;;;;26.95;11.70;;;;;;;11.75;74.27;97726.94;1682999;85;21054;-75
2022/04/09 15:43:33;;;;;;;39.63;21.75;;;;;;;11.75;74.46;97720.04;1681816;84;21007;-74
2022/04/09 15:46:03;;;;;;;31.17;15.83;;;;;;;11.75;74.59;97737.97;1682706;84;21079;-73
2022/04/09 15:48:29;;;;;;;24.85;12.95;;;;;;;11.69;74.81;97745.19;1682977;84;20984;-73
2022/04/09 15:50:56;;;;;;;21.77;12.95;;;;;;;11.66;74.95;97738.23;1682943;82;20889;-73
2022/04/09 15:57:25;;;;;;;26.65;14.47;;;;;;;11.67;75.10;97723.27;1682886;85;20973;-73
2022/04/09 16:00:07;;;;;;;28.90;14.93;;;;;;;11.62;75.24;97729.09;1682377;83;21486;-75
2022/04/09 16:02:38;;;;;;;27.87;14.40;;;;;;;11.55;75.44;97725.64;1681215;85;21056;-75
2022/04/09 16:05:11;;;;;;;25.80;14.13;;;;;;;11.54;75.59;97729.58;1671464;85;20992;-74
2022/04/09 16:07:44;;;;;;;25.92;13.32;;;;;;;11.48;75.81;97721.42;1679518;84;21830;-73
2022/04/09 16:10:11;;;;;;;24.18;11.80;;;;;;;11.47;76.03;97726.12;1683501;84;20944;-74
2022/04/09 16:12:39;;;;;;;24.15;12.05;;;;;;;11.50;76.14;97734.26;1682906;85;21068;-74
2022/04/09 16:15:16;;;;;;;23.02;13.60;;;;;;;11.51;76.28;97736.64;1683040;85;21024;-74
2022/04/09 16:18:01;;;;;;;21.73;10.28;;;;;;;11.52;76.24;97740.18;1590930;90;21615;-71
2022/04/09 16:20:38;;;;;;;18.87;10.72;;;;;;;11.52;76.25;97744.31;1675133;84;20980;-73
2022/04/09 16:23:04;;;;;;;27.07;13.03;;;;;;;11.51;76.19;97744.92;1647686;85;20957;-73
2022/04/09 16:25:34;;;;;;;23.47;13.08;;;;;;;11.50;76.23;97737.80;1682403;84;20924;-73
2022/04/09 16:28:01;;;;;;;39.95;20.17;;;;;;;11.50;76.41;97741.93;1682925;85;20972;-73
2022/04/09 16:30:29;;;;;;;48.52;22.87;;;;;;;11.50;76.48;97730.90;1683660;85;21004;-72
2022/04/09 16:32:55;;;;;;;43.38;24.07;;;;;;;11.50;76.55;97721.84;1682959;84;21397;-73
2022/04/09 16:35:29;;;;;;;66.42;31.62;;;;;;;11.51;76.53;97728.38;1683121;84;21046;-72
2022/04/09 16:41:44;;;;;;;63.58;28.00;;;;;;;11.51;76.24;97735.84;1676527;85;20957;-73
2022/04/09 16:44:26;;;;;;;46.08;22.95;;;;;;;11.47;76.17;97731.64;1682989;84;20933;-72
2022/04/09 16:46:57;;;;;;;33.42;15.98;;;;;;;11.35;76.25;97736.77;1683181;85;21138;-73
2022/04/09 16:49:30;;;;;;;37.45;17.07;;;;;;;11.26;76.43;97732.11;1682692;82;21619;-73
2022/04/09 17:02:23;;;;;;;41.33;18.85;;;;;;;11.26;76.74;97742.53;1683235;84;21565;-73
2022/04/09 17:05:09;;;;;;;;;;;;;;;11.29;76.56;97758.94;1683353;85;21403;-73
2022/04/09 17:07:51;;;;;;;20.08;10.30;;;;;;;11.27;76.57;97773.66;1682772;84;20137;-72
2022/04/09 17:10:47;;;;;;;16.33;7.57;;;;;;;11.23;77.02;97790.70;1683046;84;20944;-72
2022/04/09 17:13:36;;;;;;;15.98;6.20;;;;;;;11.15;77.72;97787.84;1683482;84;20973;-73
2022/04/09 17:16:06;;;;;;;10.88;5.45;;;;;;;11.11;78.16;97766.30;1683097;84;21014;-72
2022/04/09 17:18:57;;;;;;;13.83;6.10;;;;;;;11.08;78.63;97760.95;1678346;85;21517;-71
2022/04/09 17:22:05;;;;;;;34.27;16.17;;;;;;;11.08;79.25;97768.41;1647694;86;21001;-73
2022/04/09 17:28:16;;;;;;;25.60;10.10;;;;;;;10.75;81.33;97775.30;1668302;86;20965;-73
2022/04/09 17:30:52;;;;;;;20.88;10.08;;;;;;;10.65;82.03;97786.30;1665548;85;21052;-74
2022/04/09 17:33:23;;;;;;;26.35;9.68;;;;;;;10.66;82.36;97780.42;1668676;85;21088;-73
2022/04/09 17:35:57;;;;;;;21.17;10.63;;;;;;;10.69;82.59;97786.61;1668367;86;21055;-72
2022/04/09 17:39:10;;;;;;;23.92;9.33;;;;;;;10.72;82.83;97785.07;1668172;85;20989;-73
2022/04/09 17:44:26;;;;;;;17.95;8.63;;;;;;;10.69;83.71;97778.92;1665554;86;21814;-71
2022/04/09 17:46:53;;;;;;;13.00;8.25;;;;;;;10.70;83.86;97779.12;1678238;85;20889;-70
2022/04/09 17:49:22;;;;;;;16.73;8.85;;;;;;;10.71;83.91;97781.51;1682831;84;21151;-72
2022/04/09 17:52:17;;;;;;;18.27;9.23;;;;;;;10.69;84.16;97786.61;1679734;85;21580;-71
2022/04/09 17:54:47;;;;;;;17.95;8.70;;;;;;;10.67;84.58;97793.05;1682758;84;20948;-72
2022/04/09 17:57:15;;;;;;;19.07;8.98;;;;;;;10.67;84.97;97787.55;1683035;84;21139;-72
2022/04/09 17:59:44;;;;;;;17.40;9.48;;;;;;;10.67;85.08;97794.43;1671273;85;21016;-71
2022/04/09 18:02:13;;;;;;;20.15;8.55;;;;;;;10.67;85.21;97804.07;1681350;83;20988;-72
2022/04/09 18:05:40;;;;;;;18.75;8.55;;;;;;;10.69;85.42;97826.55;1682930;85;21513;-72
2022/04/09 18:09:03;;;;;;;18.20;8.75;;;;;;;10.70;85.73;97840.53;1682944;84;20949;-71
2022/04/09 18:11:51;;;;;;;18.98;9.58;;;;;;;10.69;85.67;97840.89;1670549;84;21517;-73
2022/04/09 18:14:36;;;;;;;23.10;10.98;;;;;;;10.68;85.64;97843.44;1671107;84;20985;-72
2022/04/09 18:17:44;;;;;;;23.80;9.93;;;;;;;10.65;85.55;97840.81;1673903;84;21061;-71
2022/04/09 18:20:43;;;;;;;26.37;10.68;;;;;;;10.62;85.72;97845.67;1677097;84;20945;-72
2022/04/09 18:23:51;;;;;;;21.07;10.25;;;;;;;10.55;85.87;97845.52;1679640;85;20996;-73
2022/04/09 18:26:37;;;;;;;20.00;9.53;;;;;;;10.45;86.32;97855.92;1651753;86;21058;-72
2022/04/09 18:29:28;;;;;;;21.25;10.63;;;;;;;10.43;86.53;97858.80;1589661;87;21551;-72
2022/04/09 18:32:37;;;;;;;26.95;13.10;;;;;;;10.41;86.64;97864.67;1644283;87;21485;-73
2022/04/09 18:35:17;;;;;;;33.05;17.40;;;;;;;10.41;86.80;97861.91;1605855;87;21470;-71
2022/04/09 18:40:42;;;;;;;29.18;17.98;;;;;;;10.41;87.19;97848.15;1642370;87;21020;-72
2022/04/09 18:43:29;;;;;;;29.23;15.80;;;;;;;10.37;87.41;97845.11;1640692;86;21001;-71
2022/04/09 18:46:28;;;;;;;28.85;14.80;;;;;;;10.26;87.74;97840.73;1564518;90;20959;-72
2022/04/09 18:49:05;;;;;;;28.57;16.32;;;;;;;10.22;88.02;97845.58;1624662;87;21651;-71
2022/04/09 18:51:34;;;;;;;33.95;15.83;;;;;;;10.22;88.10;97843.39;1623435;87;21103;-72
2022/04/09 18:54:08;;;;;;;26.50;14.68;;;;;;;10.22;88.15;97854.41;1622586;88;21366;-73
2022/04/09 18:56:43;;;;;;;25.62;13.90;;;;;;;10.20;88.06;97853.39;1622917;88;20980;-71
2022/04/09 19:03:01;;;;;;;27.52;15.08;;;;;;;10.14;87.90;97860.34;1623585;87;20936;-72
2022/04/09 19:05:57;;;;;;;25.90;15.53;;;;;;;10.06;87.98;97853.07;1622486;88;21166;-72
2022/04/09 19:08:30;;;;;;;22.67;13.15;;;;;;;10.03;88.23;97853.79;1622959;87;20980;-71
2022/04/09 19:10:57;;;;;;;26.35;15.32;;;;;;;9.99;88.23;97870.20;1642306;84;21406;-71
2022/04/09 19:13:39;;;;;;;25.43;16.05;;;;;;;9.93;88.09;97873.02;1653957;85;20925;-71
2022/04/09 19:16:23;;;;;;;59.30;33.08;;;;;;;9.89;88.06;97886.69;1611151;88;21077;-72
2022/04/09 19:18:55;;;;;;;83.47;40.28;;;;;;;9.79;87.92;97918.84;1676969;84;20893;-71
2022/04/09 19:21:23;;;;;;;71.92;33.65;;;;;;;9.69;88.86;97926.45;1679298;84;20993;-72
2022/04/09 19:24:09;;;;;;;63.40;31.12;;;;;;;9.66;89.31;97918.91;1682775;84;20998;-71
2022/04/09 19:26:42;;;;;;;55.75;28.23;;;;;;;9.65;89.60;97921.45;1681455;85;21421;-70
2022/04/09 19:29:12;;;;;;;46.98;23.38;;;;;;;9.63;89.76;97926.50;1683121;84;20968;-70
2022/04/09 19:31:44;;;;;;;38.78;19.10;;;;;;;9.61;89.88;97926.05;1683053;84;21589;-72
2022/04/09 19:35:13;;;;;;;35.95;17.73;;;;;;;9.62;90.02;97922.94;1683294;84;20897;-72
2022/04/09 19:37:49;;;;;;;31.45;16.60;;;;;;;9.64;89.80;97938.30;1682876;84;22097;-71
2022/04/09 19:40:18;;;;;;;38.80;18.52;;;;;;;9.62;89.54;97953.79;1683416;85;21012;-72
2022/04/09 19:42:51;;;;;;;38.40;17.70;;;;;;;9.61;89.49;97960.42;1677829;85;20981;-73
2022/04/09 19:45:21;;;;;;;36.75;17.07;;;;;;;9.54;89.55;97965.72;1651526;86;20948;-72
2022/04/09 19:47:51;;;;;;;34.50;18.17;;;;;;;9.49;89.82;97968.16;1646376;87;21481;-72
2022/04/09 19:50:33;;;;;;;35.38;19.05;;;;;;;9.49;90.26;97982.70;1589094;88;21028;-72
2022/04/09 19:53:26;;;;;;;47.13;22.93;;;;;;;9.52;90.57;97985.32;1614715;88;21091;-71
2022/04/09 19:56:10;;;;;;;35.90;19.07;;;;;;;9.55;90.87;97986.58;1616463;88;21079;-72
2022/04/09 19:58:39;;;;;;;40.25;20.68;;;;;;;9.60;91.15;97984.36;1617369;88;21152;-71
2022/04/09 20:01:25;;;;;;;36.58;19.10;;;;;;;9.66;91.22;97984.92;1617597;87;21025;-71
2022/04/09 20:03:55;;;;;;;39.35;20.35;;;;;;;9.68;91.17;97988.13;1596132;88;21055;-73
2022/04/09 20:06:22;;;;;;;31.12;18.35;;;;;;;9.71;91.26;97987.41;1617749;88;21088;-73
2022/04/09 20:08:53;;;;;;;33.42;17.57;;;;;;;9.73;91.30;97987.06;1617440;88;21035;-73
2022/04/09 20:11:23;;;;;;;28.67;16.30;;;;;;;9.69;91.47;97993.84;1617472;88;21056;-72
2022/04/09 20:13:53;;;;;;;31.60;16.05;;;;;;;9.70;91.69;98004.27;1596302;88;21580;-72
2022/04/09 20:16:27;;;;;;;28.12;15.78;;;;;;;9.69;91.69;98002.09;1617490;88;21524;-72
2022/04/09 20:18:54;;;;;;;28.00;16.07;;;;;;;9.69;91.74;98001.30;1621121;87;21092;-71
2022/04/09 20:21:34;;;;;;;23.05;13.00;;;;;;;9.67;92.01;97996.73;1617426;88;21036;-72
2022/04/09 20:24:14;;;;;;;21.65;12.15;;;;;;;9.64;92.31;97985.84;1597373;88;20983;-73
2022/04/09 20:27:08;;;;;;;23.02;11.75;;;;;;;9.60;92.69;97982.98;1582589;88;21071;-72
2022/04/09 20:29:41;;;;;;;23.10;11.10;;;;;;;9.56;92.91;97981.30;1595754;89;21522;-71
2022/04/09 20:32:14;;;;;;;19.55;11.80;;;;;;;9.55;93.21;97988.77;1613719;88;21087;-71
2022/04/09 20:34:43;;;;;;;18.35;10.25;;;;;;;9.52;93.29;97997.69;1634023;86;21505;-71
2022/04/09 20:37:12;;;;;;;16.77;9.35;;;;;;;9.48;93.46;98011.34;1644301;87;21011;-71
2022/04/09 20:39:41;;;;;;;19.35;10.53;;;;;;;9.45;93.66;98013.41;1644285;87;21129;-73
2022/04/09 20:42:14;;;;;;;17.05;8.85;;;;;;;9.41;94.01;98023.52;1644219;87;20984;-72
2022/04/09 20:44:59;;;;;;;20.48;9.70;;;;;;;9.40;94.27;98027.41;1641891;86;20977;-72
2022/04/09 20:47:26;;;;;;;14.90;7.92;;;;;;;9.40;94.47;98032.13;1666630;85;20886;-70
2022/04/09 20:49:53;;;;;;;19.27;8.45;;;;;;;9.39;94.65;98039.56;1644167;84;21504;-71
2022/04/09 20:52:21;;;;;;;13.35;7.78;;;;;;;9.36;94.71;98056.75;1644098;87;21567;-71
2022/04/09 20:54:48;;;;;;;13.68;8.18;;;;;;;9.35;94.91;98053.77;1644063;87;21004;-72
2022/04/09 20:57:18;;;;;;;9.68;6.58;;;;;;;9.34;94.95;98052.98;1644183;87;21422;-70
2022/04/09 20:59:48;;;;;;;14.68;6.03;;;;;;;9.33;94.97;98054.11;1644646;87;20985;-74
2022/04/09 21:02:15;;;;;;;11.30;5.00;;;;;;;9.25;95.02;98055.86;1644516;86;21016;-70
2022/04/09 21:04:42;;;;;;;11.43;5.05;;;;;;;9.21;95.10;98067.30;1644164;87;21257;-74
2022/04/09 21:07:12;;;;;;;10.13;4.95;;;;;;;9.17;95.20;98066.41;1625373;87;20984;-74
2022/04/09 21:09:42;;;;;;;10.63;4.83;;;;;;;9.12;95.34;98072.14;1644185;87;21040;-70
2022/04/09 21:12:11;;;;;;;6.55;3.98;;;;;;;9.10;95.32;98084.05;1612736;87;21143;-71
2022/04/09 21:14:38;;;;;;;5.80;3.20;;;;;;;9.06;95.51;98085.90;1644554;86;21048;-72
2022/04/09 21:17:06;;;;;;;5.25;2.85;;;;;;;9.05;95.59;98089.77;1644406;87;21153;-71
2022/04/09 21:19:37;;;;;;;7.33;2.92;;;;;;;9.03;95.52;98102.48;1644410;87;21474;-73
2022/04/09 21:22:05;;;;;;;9.28;3.15;;;;;;;8.99;95.42;98106.48;1644411;87;20934;-70
2022/04/09 21:24:32;;;;;;;4.03;2.70;;;;;;;8.94;95.44;98105.34;1644090;86;20957;-71
2022/04/09 21:26:58;;;;;;;5.47;2.52;;;;;;;8.91;95.52;98121.14;1644271;87;21461;-70
2022/04/09 21:29:28;;;;;;;5.15;2.60;;;;;;;8.86;95.58;98130.98;1644300;87;21426;-71
2022/04/09 21:31:59;;;;;;;3.20;2.35;;;;;;;8.83;95.63;98137.98;1644376;87;21502;-71
2022/04/09 21:34:29;;;;;;;5.75;1.80;;;;;;;8.80;95.61;98140.61;1644568;86;21549;-69
2022/04/09 21:36:56;;;;;;;6.00;2.08;;;;;;;8.78;95.53;98140.95;1644361;86;21033;-71
2022/04/09 21:39:42;;;;;;;4.72;2.10;;;;;;;8.78;95.38;98149.75;1644288;87;20965;-73
2022/04/09 21:42:42;;;;;;;2.60;1.70;;;;;;;8.75;95.29;98145.76;1620401;87;21043;-71
2022/04/09 21:45:14;;;;;;;3.55;1.67;;;;;;;8.73;95.24;98148.03;1625873;87;21029;-71
2022/04/09 21:51:27;;;;;;;3.42;2.37;;;;;;;8.68;95.31;98153.19;1643974;87;20964;-72
2022/04/09 21:53:55;;;;;;;3.05;2.22;;;;;;;8.68;95.48;98170.22;1644043;87;21032;-72
2022/04/09 21:56:23;;;;;;;3.70;2.50;;;;;;;8.66;95.67;98171.94;1644225;87;21537;-73
2022/04/09 21:58:54;;;;;;;5.60;2.45;;;;;;;8.66;95.73;98176.06;1644142;87;21564;-71
2022/04/09 22:01:22;;;;;;;5.12;2.37;;;;;;;8.66;95.87;98181.55;1644330;87;21023;-71
2022/04/09 22:03:49;;;;;;;2.60;2.15;;;;;;;8.66;95.85;98191.16;1644314;87;21111;-73
2022/04/09 22:06:19;;;;;;;2.50;2.10;;;;;;;8.61;95.92;98196.87;1644108;87;21028;-72
2022/04/09 22:08:47;;;;;;;3.70;2.50;;;;;;;8.58;96.06;98198.92;1646449;86;21249;-72
2022/04/09 22:11:16;;;;;;;3.72;2.77;;;;;;;8.55;96.20;98205.88;1643268;87;20997;-72
2022/04/09 22:13:44;;;;;;;4.03;2.17;;;;;;;8.52;96.24;98213.39;1644173;87;20973;-70
2022/04/09 22:16:12;;;;;;;3.55;2.00;;;;;;;8.47;96.18;98199.31;1644249;87;21492;-71
2022/04/09 22:18:40;;;;;;;2.30;1.90;;;;;;;8.44;96.04;98189.02;1644367;86;21060;-71
2022/04/09 22:21:07;;;;;;;3.47;2.05;;;;;;;8.37;96.05;98184.08;1644086;87;21787;-73
2022/04/09 22:23:41;;;;;;;2.60;1.80;;;;;;;8.34;96.04;98194.34;1644192;87;20965;-70
2022/04/09 22:26:12;;;;;;;2.50;1.80;;;;;;;8.30;96.03;98187.13;1644044;87;21039;-70
2022/04/09 22:28:41;;;;;;;2.90;1.70;;;;;;;8.28;96.09;98189.64;1644084;87;21528;-72
2022/04/09 22:31:08;;;;;;;2.25;1.60;;;;;;;8.25;95.80;98194.44;1623847;87;21500;-71
2022/04/09 22:33:39;;;;;;;2.20;1.80;;;;;;;8.22;95.78;98188.82;1644420;86;21406;-69
2022/04/09 22:36:24;;;;;;;4.28;2.50;;;;;;;8.23;95.62;98191.78;1644438;86;20953;-72
2022/04/09 22:38:50;;;;;;;3.42;1.98;;;;;;;8.19;95.17;98190.28;1641478;87;21013;-72
2022/04/09 22:41:17;;;;;;;2.10;1.80;;;;;;;8.15;94.49;98220.91;1623650;87;21465;-71
2022/04/09 22:43:46;;;;;;;2.75;1.90;;;;;;;8.10;94.33;98219.75;1644117;87;21056;-72
2022/04/09 22:46:12;;;;;;;5.50;2.10;;;;;;;8.04;93.83;98235.03;1644011;87;21152;-71
2022/04/09 22:48:39;;;;;;;4.37;2.17;;;;;;;8.00;93.88;98247.80;1644098;86;21016;-71
2022/04/09 22:51:05;;;;;;;2.30;1.85;;;;;;;7.93;93.47;98254.41;1644277;86;21020;-72
2022/04/09 22:53:32;;;;;;;3.47;1.90;;;;;;;7.89;93.62;98258.38;1644154;87;21560;-70
2022/04/09 22:55:59;;;;;;;6.72;2.17;;;;;;;7.87;93.73;98264.76;1643915;87;21096;-71
2022/04/09 22:58:35;;;;;;;2.25;2.05;;;;;;;7.85;93.60;98264.84;1625649;87;21489;-72
2022/04/09 23:01:01;;;;;;;3.47;2.22;;;;;;;7.83;93.70;98249.31;1644186;87;21489;-73
2022/04/09 23:03:35;;;;;;;2.85;1.52;;;;;;;7.81;93.68;98252.39;1644068;87;21521;-72
2022/04/09 23:06:05;;;;;;;2.35;1.87;;;;;;;7.78;93.79;98249.72;1624176;87;20925;-70
2022/04/09 23:08:32;;;;;;;5.97;1.90;;;;;;;7.75;93.76;98255.06;1644045;87;21080;-72